Time;durP1;ratioP1;P1;durP2;ratioP2;P2;SDS_P1;SDS_P2;PMS_P1;PMS_P2;Temp;Humidity;BMP_temperature;BMP_pressure;BME280_temperature;BME280_humidity;BME280_pressure;Samples;Min_cycle;Max_cycle;Signal;HPM_P1;HPM_P2
2022/04/26 03:36:40;;;;;;;20.00;9.17;;;7.40;99.90;;;;;;5035838;28;20032;-76
2022/04/26 03:39:06;;;;;;;15.45;9.68;;;7.30;99.90;;;;;;5035322;28;20017;-75
2022/04/26 03:41:32;;;;;;;17.13;9.50;;;7.30;99.90;;;;;;5035160;28;20029;-75
2022/04/26 03:43:58;;;;;;;15.57;9.68;;;7.30;99.90;;;;;;5017423;28;20133;-76
2022/04/26 03:46:24;;;;;;;17.17;9.60;;;7.30;99.90;;;;;;5016787;28;20102;-76
2022/04/26 03:48:50;;;;;;;17.70;9.65;;;7.30;99.90;;;;;;5017205;28;20406;-76
2022/04/26 03:51:15;;;;;;;21.50;10.65;;;7.30;99.90;;;;;;5035543;28;20047;-76
2022/04/26 03:53:41;;;;;;;17.02;9.65;;;7.30;99.90;;;;;;5034901;28;20029;-76
2022/04/26 03:56:07;;;;;;;15.32;9.02;;;7.30;99.90;;;;;;5034607;28;20033;-76
2022/04/26 03:58:33;;;;;;;22.08;11.13;;;7.30;99.90;;;;;;5035372;28;20107;-76
2022/04/26 04:00:59;;;;;;;20.58;11.18;;;7.40;99.90;;;;;;5035530;28;20390;-75
2022/04/26 04:03:25;;;;;;;24.38;12.93;;;7.30;99.90;;;;;;5035756;28;20037;-74
2022/04/26 04:05:50;;;;;;;28.92;14.25;;;7.30;99.90;;;;;;5035910;28;20021;-75
2022/04/26 04:08:16;;;;;;;24.15;12.45;;;7.40;99.90;;;;;;5035459;28;20029;-75
2022/04/26 04:10:42;;;;;;;19.10;11.07;;;7.40;99.90;;;;;;5035038;28;20034;-76
2022/04/26 04:13:07;;;;;;;23.35;11.35;;;7.30;99.90;;;;;;5034904;28;20390;-76
2022/04/26 04:15:33;;;;;;;17.52;10.30;;;7.30;99.90;;;;;;5034144;28;20029;-77
2022/04/26 04:17:59;;;;;;;20.00;12.25;;;7.30;99.90;;;;;;5034713;28;20079;-75
2022/04/26 04:20:25;;;;;;;19.67;11.63;;;7.40;99.90;;;;;;5017327;28;20375;-75
2022/04/26 04:22:53;;;;;;;18.48;10.02;;;7.30;99.90;;;;;;5035257;28;20120;-76
2022/04/26 04:25:19;;;;;;;22.95;9.82;;;7.40;99.90;;;;;;5034740;28;20021;-77
2022/04/26 04:27:45;;;;;;;20.77;10.80;;;7.40;99.90;;;;;;5035194;28;20034;-77
2022/04/26 04:30:11;;;;;;;15.93;9.30;;;7.40;99.90;;;;;;5035569;28;20025;-76
2022/04/26 04:32:37;;;;;;;22.83;12.13;;;7.40;99.90;;;;;;5034199;28;20402;-75
2022/04/26 04:35:04;;;;;;;18.55;11.05;;;7.40;99.90;;;;;;5034311;28;20018;-76
2022/04/26 04:37:30;;;;;;;18.10;10.82;;;7.40;99.90;;;;;;5034279;28;20048;-76
2022/04/26 04:39:55;;;;;;;20.73;10.65;;;7.50;99.90;;;;;;5035633;28;20391;-76
2022/04/26 04:42:21;;;;;;;23.33;11.10;;;7.50;99.90;;;;;;5041092;28;20422;-75
2022/04/26 04:44:47;;;;;;;26.30;11.75;;;7.50;99.90;;;;;;5047516;28;20490;-74
2022/04/26 04:47:12;;;;;;;24.30;12.95;;;7.50;99.90;;;;;;5058235;28;20020;-77
2022/04/26 04:49:38;;;;;;;24.08;12.75;;;7.50;99.90;;;;;;5058435;28;20028;-75
2022/04/26 04:52:03;;;;;;;26.80;12.27;;;7.50;99.90;;;;;;5058663;28;20049;-77
2022/04/26 04:54:29;;;;;;;23.42;12.55;;;7.60;99.90;;;;;;5058497;28;20021;-76
2022/04/26 04:56:55;;;;;;;19.83;11.63;;;7.60;99.90;;;;;;5052088;28;20067;-77
2022/04/26 04:59:20;;;;;;;23.30;11.48;;;7.70;99.90;;;;;;5049184;28;20027;-77
2022/04/26 05:01:46;;;;;;;22.73;11.05;;;7.70;99.90;;;;;;5056164;28;20036;-77
2022/04/26 05:04:11;;;;;;;27.45;11.35;;;7.70;99.90;;;;;;5047631;28;20475;-77
2022/04/26 05:06:37;;;;;;;26.60;11.48;;;7.80;99.90;;;;;;5035757;28;20025;-76
2022/04/26 05:09:02;;;;;;;20.17;12.20;;;7.80;99.90;;;;;;5037128;28;20022;-75
2022/04/26 05:11:28;;;;;;;29.88;14.23;;;7.90;99.90;;;;;;5035569;28;20445;-76
2022/04/26 05:13:53;;;;;;;41.13;15.48;;;8.00;99.90;;;;;;5035846;28;20037;-76
2022/04/26 05:16:19;;;;;;;32.97;16.63;;;8.10;99.90;;;;;;5036317;28;20043;-74
2022/04/26 05:18:45;;;;;;;29.40;14.20;;;8.10;99.90;;;;;;5038153;28;20021;-76
2022/04/26 05:21:13;;;;;;;23.83;11.90;;;8.20;99.90;;;;;;5037397;28;20530;-78
2022/04/26 05:26:23;;;;;;;18.45;10.65;;;8.30;99.90;;;;;;5034231;28;20096;-75
2022/04/26 05:28:48;;;;;;;21.67;12.15;;;8.40;99.90;;;;;;5035083;28;20478;-76
2022/04/26 05:31:14;;;;;;;18.00;11.00;;;8.50;99.90;;;;;;5038448;28;20048;-75
2022/04/26 05:33:40;;;;;;;27.92;14.77;;;8.60;99.90;;;;;;5035256;28;20033;-76
2022/04/26 05:36:05;;;;;;;20.58;11.63;;;8.80;99.90;;;;;;5034283;28;20386;-76
2022/04/26 05:38:31;;;;;;;19.38;9.73;;;8.90;99.90;;;;;;5035219;28;20026;-76
2022/04/26 05:40:57;;;;;;;17.40;10.88;;;9.00;99.90;;;;;;5035209;28;20030;-77
2022/04/26 05:43:22;;;;;;;20.50;10.52;;;9.20;99.90;;;;;;5034822;28;20437;-73
2022/04/26 05:45:48;;;;;;;20.77;11.18;;;9.30;99.90;;;;;;5034377;28;20044;-74
2022/04/26 05:48:13;;;;;;;21.60;11.88;;;9.30;99.90;;;;;;5020233;28;20437;-75
2022/04/26 05:50:40;;;;;;;22.35;11.23;;;9.40;99.90;;;;;;5044468;28;20037;-76
2022/04/26 05:53:06;;;;;;;16.63;10.85;;;9.40;99.90;;;;;;5043889;28;20021;-75
2022/04/26 05:55:31;;;;;;;22.88;11.63;;;9.50;99.90;;;;;;5018177;28;20079;-75
2022/04/26 05:57:57;;;;;;;20.20;10.80;;;9.50;99.90;;;;;;5036291;28;20501;-76
2022/04/26 06:00:23;;;;;;;21.20;12.25;;;9.60;99.90;;;;;;5035034;28;20025;-75
2022/04/26 06:02:51;;;;;;;18.42;11.52;;;9.70;99.90;;;;;;5034149;28;20171;-74
2022/04/26 06:05:17;;;;;;;18.30;11.32;;;9.80;99.90;;;;;;5033582;28;20496;-77
2022/04/26 06:07:42;;;;;;;18.00;10.95;;;9.90;99.90;;;;;;5034794;28;20026;-75
2022/04/26 06:10:10;;;;;;;26.30;10.75;;;10.00;99.90;;;;;;5035499;28;20026;-75
2022/04/26 06:12:36;;;;;;;18.48;10.50;;;10.10;99.90;;;;;;5036534;28;20033;-75
2022/04/26 06:15:02;;;;;;;19.00;10.98;;;10.20;99.90;;;;;;5035555;28;20031;-76
2022/04/26 06:17:28;;;;;;;16.45;10.35;;;10.40;99.90;;;;;;5036370;28;20028;-77
2022/04/26 06:19:54;;;;;;;19.05;10.75;;;10.60;99.90;;;;;;5035241;28;20013;-75
2022/04/26 06:22:19;;;;;;;16.85;10.20;;;10.60;99.90;;;;;;5033584;28;20034;-76
2022/04/26 06:24:45;;;;;;;20.88;10.55;;;10.70;99.90;;;;;;5038185;28;20072;-75
2022/04/26 06:27:10;;;;;;;21.48;11.30;;;10.70;99.90;;;;;;5018472;28;20041;-78
2022/04/26 06:29:36;;;;;;;18.33;10.52;;;10.80;99.90;;;;;;5035321;28;20049;-76
2022/04/26 06:32:02;;;;;;;17.33;10.25;;;10.80;99.90;;;;;;5032760;28;20057;-75
2022/04/26 06:34:28;;;;;;;18.30;9.25;;;11.00;99.90;;;;;;5034545;28;20478;-77
2022/04/26 06:36:53;;;;;;;15.77;9.23;;;11.10;99.90;;;;;;5034757;28;20041;-76
2022/04/26 06:39:19;;;;;;;15.45;8.52;;;11.20;99.90;;;;;;5033424;28;20021;-74
2022/04/26 06:41:46;;;;;;;14.13;8.50;;;11.40;99.90;;;;;;5033696;28;20031;-76
2022/04/26 06:44:11;;;;;;;18.85;8.57;;;11.40;99.90;;;;;;5038320;28;20024;-77
2022/04/26 06:46:37;;;;;;;15.88;9.10;;;11.60;99.90;;;;;;5034458;28;20033;-75
2022/04/26 06:49:03;;;;;;;15.80;9.27;;;11.70;99.90;;;;;;5034833;28;20394;-78
2022/04/26 06:51:33;;;;;;;15.95;8.25;;;11.90;99.90;;;;;;5033416;28;20026;-77
2022/04/26 06:53:58;;;;;;;15.52;8.18;;;11.90;99.90;;;;;;5033555;28;20150;-76
2022/04/26 06:56:24;;;;;;;15.80;7.68;;;12.00;99.90;;;;;;5032459;28;20021;-75
2022/04/26 06:58:50;;;;;;;15.55;7.57;;;12.10;99.90;;;;;;5036596;28;20029;-79
2022/04/26 07:01:15;;;;;;;15.38;8.07;;;12.20;99.90;;;;;;5039346;28;20041;-74
2022/04/26 07:03:41;;;;;;;13.13;7.88;;;12.20;99.90;;;;;;5037286;28;20025;-73
2022/04/26 07:06:06;;;;;;;14.13;8.25;;;12.30;99.90;;;;;;5036762;28;20033;-74
2022/04/26 07:08:32;;;;;;;11.52;7.47;;;12.30;99.90;;;;;;5037791;28;20026;-75
2022/04/26 07:10:57;;;;;;;12.75;7.03;;;12.40;99.90;;;;;;5038353;28;20103;-74
2022/04/26 07:13:23;;;;;;;16.27;8.00;;;12.50;99.90;;;;;;5036555;28;20103;-74
2022/04/26 07:15:48;;;;;;;13.73;6.93;;;12.60;99.90;;;;;;5037467;28;20531;-74
2022/04/26 07:18:14;;;;;;;12.10;6.55;;;12.80;99.90;;;;;;5036530;28;20096;-73
2022/04/26 07:20:44;;;;;;;13.13;7.30;;;12.90;99.90;;;;;;5036882;28;20022;-74
2022/04/26 07:23:11;;;;;;;13.27;7.07;;;13.00;99.90;;;;;;5036065;28;20025;-76
2022/04/26 07:25:36;;;;;;;10.93;6.90;;;13.10;99.90;;;;;;5037004;28;20053;-75
2022/04/26 07:28:02;;;;;;;15.23;7.57;;;13.10;99.90;;;;;;5036584;28;20061;-74
2022/04/26 07:30:34;;;;;;;15.93;8.60;;;13.20;99.90;;;;;;5036370;28;20535;-76
2022/04/26 07:35:45;;;;;;;14.73;7.20;;;13.50;99.90;;;;;;5036475;28;20390;-76
2022/04/26 07:38:10;;;;;;;10.80;7.07;;;13.70;99.90;;;;;;5022720;28;20022;-74
2022/04/26 07:40:36;;;;;;;17.15;7.95;;;13.70;99.90;;;;;;5019800;28;20032;-76
2022/04/26 07:43:02;;;;;;;16.83;8.07;;;13.70;99.90;;;;;;5039307;28;20040;-79
2022/04/26 07:45:27;;;;;;;15.52;7.07;;;13.80;99.90;;;;;;5036393;28;20367;-75
2022/04/26 07:47:53;;;;;;;13.25;6.55;;;13.90;99.90;;;;;;5038672;28;20030;-76
2022/04/26 07:50:18;;;;;;;9.73;6.60;;;13.90;99.90;;;;;;5040647;28;20084;-77
2022/04/26 07:52:44;;;;;;;10.52;6.72;;;14.10;99.90;;;;;;5023661;28;20083;-76
2022/04/26 07:55:10;;;;;;;12.00;6.43;;;14.20;99.90;;;;;;5044009;28;20029;-77
2022/04/26 07:57:38;;;;;;;12.40;6.13;;;14.30;99.90;;;;;;5037710;28;20022;-76
2022/04/26 08:00:05;;;;;;;14.02;7.00;;;14.30;99.90;;;;;;5037480;28;20045;-75
2022/04/26 08:02:30;;;;;;;12.38;6.80;;;14.40;99.90;;;;;;5038241;28;20029;-78
2022/04/26 08:05:01;;;;;;;15.85;7.15;;;14.40;99.90;;;;;;5040173;28;20030;-76
2022/04/26 08:07:30;;;;;;;15.63;7.43;;;14.40;99.90;;;;;;5038803;28;20022;-77
2022/04/26 08:09:56;;;;;;;9.45;6.03;;;14.40;99.90;;;;;;5040848;28;20087;-77
2022/04/26 08:12:22;;;;;;;12.50;6.00;;;14.50;99.90;;;;;;5044775;28;20030;-77
2022/04/26 08:14:47;;;;;;;13.75;6.88;;;14.60;99.90;;;;;;5041035;28;20021;-77
2022/04/26 08:17:15;;;;;;;13.13;6.50;;;14.80;99.90;;;;;;5024815;28;20025;-75
2022/04/26 08:19:41;;;;;;;12.18;5.97;;;14.90;99.90;;;;;;5040676;28;20100;-78
2022/04/26 08:22:07;;;;;;;11.32;6.28;;;15.00;99.90;;;;;;5026746;28;20091;-77
2022/04/26 08:27:24;;;;;;;14.50;6.18;;;15.10;99.90;;;;;;5047887;28;20032;-74
2022/04/26 08:29:51;;;;;;;9.35;6.03;;;15.20;99.90;;;;;;5038370;28;20108;-77
2022/04/26 08:32:16;;;;;;;10.68;6.20;;;15.30;99.90;;;;;;5038780;28;20668;-78
2022/04/26 08:34:42;;;;;;;11.27;6.00;;;15.40;99.90;;;;;;5044396;28;20044;-78
2022/04/26 08:37:11;;;;;;;12.75;7.00;;;15.50;99.90;;;;;;5045271;28;20022;-81
2022/04/26 08:39:36;;;;;;;10.45;6.13;;;15.60;99.90;;;;;;5042799;28;20418;-77
2022/04/26 08:42:04;;;;;;;11.50;5.60;;;15.70;99.90;;;;;;5042449;28;20030;-77
2022/04/26 08:44:30;;;;;;;11.25;6.72;;;15.80;99.90;;;;;;5042429;28;20064;-80
2022/04/26 08:52:28;;;;;;;11.95;6.30;;;15.80;98.90;;;;;;5039737;28;20036;-78
2022/04/26 08:54:54;;;;;;;17.05;9.60;;;15.80;98.00;;;;;;5035990;28;20017;-76
2022/04/26 08:57:20;;;;;;;14.20;7.28;;;15.90;98.40;;;;;;5019040;28;20025;-76
2022/04/26 08:59:47;;;;;;;12.82;6.72;;;16.10;97.60;;;;;;5038355;28;20017;-77
2022/04/26 09:02:15;;;;;;;12.00;6.65;;;16.20;97.40;;;;;;5040745;28;20048;-79
2022/04/26 09:04:41;;;;;;;10.68;6.20;;;16.30;97.40;;;;;;5041369;28;20025;-77
2022/04/26 09:07:11;;;;;;;8.98;6.10;;;16.40;97.30;;;;;;5037774;28;20048;-77
2022/04/26 09:09:39;;;;;;;9.73;6.90;;;16.40;96.90;;;;;;5019849;28;20025;-78
2022/04/26 09:12:10;;;;;;;13.85;7.53;;;16.40;96.50;;;;;;5037738;28;20025;-77
2022/04/26 09:14:40;;;;;;;14.63;7.15;;;16.40;96.60;;;;;;5038183;28;20214;-77
2022/04/26 09:17:07;;;;;;;13.48;7.63;;;16.40;96.40;;;;;;5018935;28;20029;-77
2022/04/26 09:19:44;;;;;;;18.40;6.68;;;16.40;95.60;;;;;;5037470;28;20017;-78
2022/04/26 09:22:16;;;;;;;12.43;6.45;;;16.40;96.00;;;;;;5018529;28;20029;-79
2022/04/26 09:25:04;;;;;;;14.60;7.00;;;16.40;95.60;;;;;;5039961;28;20029;-79
2022/04/26 09:27:30;;;;;;;14.32;6.13;;;16.60;95.80;;;;;;5037957;28;20036;-78
2022/04/26 09:29:56;;;;;;;10.95;6.45;;;16.60;95.10;;;;;;5018609;28;20040;-78
2022/04/26 09:32:23;;;;;;;12.73;5.75;;;16.60;94.30;;;;;;5041264;28;20116;-78
2022/04/26 09:34:49;;;;;;;9.18;5.43;;;16.60;92.90;;;;;;5039481;28;20025;-78
2022/04/26 09:37:16;;;;;;;7.68;4.68;;;16.60;92.00;;;;;;5038372;28;20044;-78
2022/04/26 09:40:02;;;;;;;16.45;6.07;;;16.60;92.20;;;;;;5037950;28;20390;-78
2022/04/26 09:42:30;;;;;;;11.55;5.70;;;16.70;91.70;;;;;;5037711;28;20556;-78
2022/04/26 09:45:04;;;;;;;10.52;4.75;;;16.90;92.30;;;;;;5037939;28;20029;-77
2022/04/26 09:47:43;;;;;;;9.80;4.82;;;17.10;90.80;;;;;;5036388;28;20037;-77
2022/04/26 09:50:16;;;;;;;8.27;4.55;;;17.40;90.70;;;;;;5037225;28;20364;-77
2022/04/26 09:52:42;;;;;;;8.85;5.13;;;17.60;90.20;;;;;;5037512;28;20122;-77
2022/04/26 09:55:10;;;;;;;11.60;4.85;;;17.80;90.00;;;;;;5039071;28;20419;-76
2022/04/26 09:57:38;;;;;;;10.68;5.20;;;18.00;89.10;;;;;;5020315;28;20470;-78
2022/04/26 10:00:09;;;;;;;9.40;4.82;;;18.10;87.80;;;;;;5039248;28;20048;-78
2022/04/26 10:02:36;;;;;;;8.02;5.38;;;18.20;86.30;;;;;;5041542;28;20589;-78
2022/04/26 10:05:07;;;;;;;13.63;5.35;;;18.20;84.70;;;;;;5042330;28;20068;-77
2022/04/26 10:07:36;;;;;;;14.95;4.72;;;18.30;84.00;;;;;;5038470;28;20421;-77
2022/04/26 10:10:04;;;;;;;10.05;4.90;;;18.30;83.50;;;;;;5036649;28;20029;-79
2022/04/26 10:12:31;;;;;;;8.77;4.55;;;18.50;81.70;;;;;;5039577;28;20565;-77
2022/04/26 10:14:58;;;;;;;7.68;5.43;;;18.70;81.00;;;;;;5035673;28;20477;-77
2022/04/26 10:17:24;;;;;;;8.23;4.55;;;18.80;78.50;;;;;;5035145;28;20054;-78
2022/04/26 10:19:49;;;;;;;9.07;4.85;;;19.00;78.30;;;;;;5034175;28;20023;-77
2022/04/26 10:22:17;;;;;;;8.38;5.20;;;19.20;76.50;;;;;;5038680;28;20021;-77
2022/04/26 10:25:08;;;;;;;8.20;5.32;;;19.50;76.00;;;;;;5038578;28;20071;-76
2022/04/26 10:27:34;;;;;;;10.65;6.03;;;19.80;74.80;;;;;;5038897;28;20080;-77
2022/04/26 10:29:59;;;;;;;10.55;4.90;;;20.00;72.90;;;;;;5038852;28;20025;-77
2022/04/26 10:32:30;;;;;;;9.45;5.20;;;20.20;71.90;;;;;;5035193;28;20025;-77
2022/04/26 10:34:55;;;;;;;14.15;5.53;;;20.40;70.60;;;;;;5033075;28;20042;-78
2022/04/26 10:37:21;;;;;;;6.40;4.20;;;20.60;69.50;;;;;;5018179;28;20076;-77
2022/04/26 10:40:01;;;;;;;5.60;4.18;;;20.70;69.70;;;;;;5034662;28;20029;-77
2022/04/26 10:42:29;;;;;;;7.57;4.82;;;21.00;68.80;;;;;;5036973;28;20029;-75
2022/04/26 10:45:09;;;;;;;8.98;5.07;;;21.20;67.00;;;;;;5017515;28;20032;-77
2022/04/26 10:47:35;;;;;;;12.80;5.13;;;21.30;64.60;;;;;;5033836;28;20017;-77
2022/04/26 10:50:02;;;;;;;11.40;5.13;;;21.40;65.50;;;;;;5034488;28;20053;-77
2022/04/26 10:52:34;;;;;;;12.48;7.30;;;21.50;65.30;;;;;;5038819;28;20113;-77
2022/04/26 10:55:03;;;;;;;8.30;4.88;;;21.60;62.90;;;;;;5036458;28;20075;-77
2022/04/26 10:57:43;;;;;;;9.38;4.68;;;21.60;61.80;;;;;;5037027;28;20022;-79
2022/04/26 11:00:10;;;;;;;7.57;4.50;;;21.50;62.90;;;;;;5035679;28;20490;-78
2022/04/26 11:02:47;;;;;;;9.30;5.05;;;21.30;62.20;;;;;;5038316;28;20025;-79
2022/04/26 11:05:18;;;;;;;10.27;6.25;;;21.10;61.70;;;;;;5038745;28;20025;-76
2022/04/26 11:07:48;;;;;;;11.52;7.80;;;21.00;61.90;;;;;;5041219;28;20364;-77
2022/04/26 11:10:18;;;;;;;12.48;6.55;;;20.80;60.90;;;;;;5041618;28;20109;-77
2022/04/26 11:12:43;;;;;;;13.35;5.68;;;20.80;62.20;;;;;;5038312;28;20057;-77
2022/04/26 11:15:12;;;;;;;10.13;6.15;;;21.00;62.10;;;;;;5021713;28;20471;-77
2022/04/26 11:17:39;;;;;;;9.05;5.30;;;21.20;62.10;;;;;;5033252;28;20052;-76
2022/04/26 11:20:10;;;;;;;15.93;6.32;;;21.10;60.60;;;;;;5035045;28;20078;-77
2022/04/26 11:22:49;;;;;;;9.00;5.50;;;21.10;60.40;;;;;;5038637;28;20025;-78
2022/04/26 11:28:08;;;;;;;14.13;5.72;;;21.10;61.20;;;;;;5037948;28;20556;-76
2022/04/26 11:30:45;;;;;;;12.68;6.10;;;21.20;59.80;;;;;;5038644;28;20057;-77
2022/04/26 11:33:22;;;;;;;14.25;5.50;;;21.30;59.70;;;;;;5023204;28;20030;-76
2022/04/26 11:35:58;;;;;;;10.45;5.60;;;21.40;59.50;;;;;;5042111;28;20096;-76
2022/04/26 11:38:24;;;;;;;11.13;6.10;;;21.50;58.40;;;;;;5038985;28;20022;-78
2022/04/26 11:41:03;;;;;;;11.05;5.45;;;21.50;58.20;;;;;;5040880;28;20022;-77
2022/04/26 11:43:31;;;;;;;11.52;5.78;;;21.60;58.10;;;;;;5038463;28;20034;-78
2022/04/26 11:45:58;;;;;;;8.23;5.72;;;21.70;57.80;;;;;;5042779;28;20033;-78
2022/04/26 11:48:26;;;;;;;8.02;6.28;;;21.80;57.60;;;;;;5042555;28;20037;-78
2022/04/26 11:50:54;;;;;;;8.27;5.05;;;21.70;56.30;;;;;;5046603;28;20025;-78
2022/04/26 11:53:24;;;;;;;8.43;5.55;;;21.60;56.60;;;;;;5040591;28;20059;-78
2022/04/26 11:55:57;;;;;;;6.32;4.75;;;21.50;57.10;;;;;;5036759;28;20040;-78
2022/04/26 11:58:36;;;;;;;7.63;5.32;;;21.60;56.80;;;;;;5036836;28;20452;-78
2022/04/26 12:01:25;;;;;;;7.45;4.93;;;21.80;55.70;;;;;;5036904;28;20056;-78
2022/04/26 12:03:53;;;;;;;7.65;5.22;;;21.80;54.80;;;;;;5035494;28;20101;-77
2022/04/26 12:06:24;;;;;;;14.30;5.18;;;21.80;55.00;;;;;;5035933;28;20018;-75
2022/04/26 12:08:54;;;;;;;22.02;5.57;;;21.80;55.30;;;;;;5035471;28;20032;-78
2022/04/26 12:11:26;;;;;;;8.15;5.22;;;21.90;55.50;;;;;;5034680;28;20471;-77
2022/04/26 12:14:05;;;;;;;9.43;5.45;;;22.10;54.20;;;;;;5035589;28;20026;-78
2022/04/26 12:16:35;;;;;;;8.30;5.03;;;22.40;54.50;;;;;;5036071;28;20014;-77
2022/04/26 12:19:01;;;;;;;15.65;5.30;;;22.60;54.40;;;;;;5036215;28;20548;-77
2022/04/26 12:21:27;;;;;;;11.23;5.18;;;22.80;53.30;;;;;;5036927;28;20387;-76
2022/04/26 12:24:10;;;;;;;9.15;4.35;;;23.10;53.20;;;;;;5037478;28;20040;-79
2022/04/26 12:26:36;;;;;;;10.23;5.18;;;23.10;53.10;;;;;;5038297;28;20021;-77
2022/04/26 12:29:10;;;;;;;11.23;5.72;;;23.00;52.40;;;;;;5040080;28;20032;-78
2022/04/26 12:31:47;;;;;;;7.85;5.28;;;22.70;52.40;;;;;;5039763;28;20053;-77
2022/04/26 12:34:24;;;;;;;10.13;5.07;;;22.40;52.90;;;;;;5039359;28;20422;-77
2022/04/26 12:37:02;;;;;;;10.82;4.72;;;22.10;53.30;;;;;;5037453;28;20025;-76
2022/04/26 12:39:45;;;;;;;6.32;4.70;;;22.60;53.30;;;;;;5037333;28;20045;-75
2022/04/26 12:42:17;;;;;;;7.18;5.10;;;22.40;53.00;;;;;;5036713;28;20025;-76
2022/04/26 12:44:54;;;;;;;10.98;5.32;;;22.30;53.30;;;;;;5035645;28;20367;-75
2022/04/26 12:52:53;;;;;;;8.90;5.13;;;25.30;48.60;;;;;;5043051;28;20504;-78
2022/04/26 12:55:28;;;;;;;10.68;5.40;;;25.00;47.80;;;;;;5045180;28;20041;-78
2022/04/26 12:57:55;;;;;;;;;;;24.30;48.60;;;;;;5041845;28;20080;-80
2022/04/26 13:00:22;;;;;;;16.70;6.78;;;23.80;49.80;;;;;;5042771;28;19937;-79
2022/04/26 13:02:53;;;;;;;12.98;5.22;;;24.00;49.60;;;;;;5041383;28;20021;-76
2022/04/26 13:05:22;;;;;;;10.20;5.07;;;25.00;49.20;;;;;;5038013;28;20025;-76
2022/04/26 13:07:48;;;;;;;20.70;6.95;;;26.30;47.30;;;;;;5038341;28;20037;-77
2022/04/26 13:10:15;;;;;;;15.00;4.85;;;26.70;46.20;;;;;;5041480;28;20448;-76
2022/04/26 13:12:42;;;;;;;7.78;5.03;;;26.40;46.40;;;;;;5042670;28;20048;-77
2022/04/26 13:15:08;;;;;;;8.65;5.45;;;25.90;45.20;;;;;;5044485;28;20029;-78
2022/04/26 13:17:35;;;;;;;9.05;4.47;;;25.20;45.90;;;;;;5045901;28;20021;-76
2022/04/26 13:20:01;;;;;;;8.63;5.38;;;24.80;47.20;;;;;;5044254;28;20108;-76
2022/04/26 13:22:26;;;;;;;9.07;5.60;;;24.20;47.40;;;;;;5043952;28;20079;-76
2022/04/26 13:24:52;;;;;;;8.73;4.43;;;23.80;48.10;;;;;;5041290;28;20032;-76
2022/04/26 13:27:18;;;;;;;8.85;5.05;;;23.30;48.70;;;;;;5039698;28;20033;-78
2022/04/26 13:29:44;;;;;;;11.50;5.13;;;23.00;49.10;;;;;;5042713;28;20025;-77
2022/04/26 13:32:10;;;;;;;10.35;4.82;;;22.60;49.40;;;;;;5040545;28;20021;-77
2022/04/26 13:34:35;;;;;;;8.15;4.53;;;22.30;49.50;;;;;;5042724;28;20164;-75
2022/04/26 13:37:01;;;;;;;9.45;5.20;;;22.00;50.00;;;;;;5034576;28;20030;-77
2022/04/26 13:39:26;;;;;;;7.22;5.35;;;22.30;50.20;;;;;;5035324;28;20021;-75
2022/04/26 13:41:52;;;;;;;11.68;5.93;;;22.50;49.40;;;;;;5037562;28;20082;-76
2022/04/26 13:44:19;;;;;;;9.23;5.25;;;22.60;49.20;;;;;;5040340;28;20029;-79
2022/04/26 13:46:45;;;;;;;6.63;5.20;;;22.40;49.30;;;;;;5038512;28;20052;-78
2022/04/26 13:49:11;;;;;;;12.38;6.15;;;22.20;49.90;;;;;;5023434;28;20028;-78
2022/04/26 13:51:37;;;;;;;7.82;5.70;;;21.90;50.40;;;;;;5028942;28;20057;-79
2022/04/26 13:54:02;;;;;;;14.50;6.00;;;21.60;51.10;;;;;;5043747;28;20037;-78
2022/04/26 13:56:28;;;;;;;10.65;5.32;;;21.20;51.80;;;;;;5041681;28;20052;-79
2022/04/26 13:58:53;;;;;;;9.25;6.15;;;21.10;52.30;;;;;;5040794;28;20658;-77
2022/04/26 14:01:19;;;;;;;9.27;6.30;;;20.90;52.30;;;;;;5039652;28;20056;-78
2022/04/26 14:03:45;;;;;;;11.60;6.72;;;20.80;52.40;;;;;;5044253;28;20013;-78
2022/04/26 14:06:11;;;;;;;10.98;6.05;;;20.70;52.60;;;;;;5041053;28;20506;-77
2022/04/26 14:08:37;;;;;;;12.55;5.50;;;20.70;52.60;;;;;;5041082;28;20025;-78
2022/04/26 14:11:03;;;;;;;8.48;5.50;;;20.70;52.80;;;;;;5042072;28;20089;-79
2022/04/26 14:21:46;;;;;;;10.50;5.75;;;21.30;53.00;;;;;;5024578;28;20027;-78
2022/04/26 14:21:48;;;;;;;7.50;5.25;;;23.30;49.00;;;;;;5041716;28;20037;-77
2022/04/26 14:24:14;;;;;;;11.40;4.45;;;23.10;47.50;;;;;;5037797;28;20021;-79
2022/04/26 14:26:42;;;;;;;11.70;5.25;;;23.60;47.90;;;;;;5038441;28;20033;-79
2022/04/26 14:29:08;;;;;;;13.85;5.43;;;24.80;46.80;;;;;;5041813;28;20029;-79
2022/04/26 14:31:35;;;;;;;8.48;4.60;;;26.10;44.70;;;;;;5037842;28;20085;-78
2022/04/26 14:34:01;;;;;;;8.40;4.45;;;27.30;42.30;;;;;;5039983;28;20029;-78
2022/04/26 14:36:27;;;;;;;12.13;5.18;;;28.40;41.50;;;;;;5038312;28;20027;-78
2022/04/26 14:38:52;;;;;;;7.32;3.78;;;28.50;39.80;;;;;;5021075;28;20026;-79
2022/04/26 14:41:18;;;;;;;7.13;4.30;;;28.30;39.20;;;;;;5038918;28;20029;-79
2022/04/26 14:43:43;;;;;;;8.90;4.35;;;27.50;39.10;;;;;;5036593;28;20029;-78
2022/04/26 14:46:09;;;;;;;8.57;4.22;;;26.40;40.10;;;;;;5036201;28;20034;-79
2022/04/26 14:48:36;;;;;;;8.07;4.38;;;25.60;40.10;;;;;;5046389;28;20037;-76
2022/04/26 14:51:02;;;;;;;9.90;4.80;;;25.00;40.40;;;;;;5047648;28;20028;-78
2022/04/26 14:53:27;;;;;;;9.15;4.82;;;24.70;41.00;;;;;;5045849;28;20081;-78
2022/04/26 14:55:53;;;;;;;7.32;4.25;;;25.30;41.50;;;;;;5034625;28;20026;-78
2022/04/26 14:58:19;;;;;;;7.70;3.58;;;26.00;39.80;;;;;;5037376;28;20100;-79
2022/04/26 15:00:44;;;;;;;10.02;3.70;;;27.10;38.80;;;;;;5037385;28;20044;-78
2022/04/26 15:03:11;;;;;;;11.43;2.83;;;27.60;37.60;;;;;;5037247;28;20037;-78
2022/04/26 15:05:36;;;;;;;6.85;2.80;;;27.30;36.60;;;;;;5036066;28;20036;-79
2022/04/26 15:10:46;;;;;;;8.32;4.00;;;25.80;36.90;;;;;;5039732;28;20589;-76
2022/04/26 15:18:40;;;;;;;4.80;3.22;;;26.30;38.40;;;;;;5039673;28;20044;-79
2022/04/26 15:21:08;;;;;;;8.75;4.05;;;26.60;36.80;;;;;;5048481;28;20422;-78
2022/04/26 15:23:35;;;;;;;6.13;3.35;;;26.70;36.40;;;;;;5046283;28;20030;-77
2022/04/26 15:26:03;;;;;;;9.25;4.28;;;26.70;36.80;;;;;;5046210;28;20119;-77
2022/04/26 15:28:30;;;;;;;11.68;4.40;;;26.70;37.60;;;;;;5048774;28;20026;-78
2022/04/26 15:30:55;;;;;;;10.15;4.97;;;26.40;38.00;;;;;;5050044;28;20037;-79
2022/04/26 15:33:22;;;;;;;15.85;7.05;;;25.90;38.60;;;;;;5030305;28;20406;-78
2022/04/26 15:35:48;;;;;;;6.63;3.50;;;25.40;40.00;;;;;;5043315;28;20071;-77
2022/04/26 15:38:14;;;;;;;6.07;3.47;;;25.20;40.90;;;;;;5044092;28;20022;-77
2022/04/26 15:40:46;;;;;;;9.50;3.10;;;24.80;41.30;;;;;;5038326;28;20032;-77
2022/04/26 15:43:12;;;;;;;6.80;3.50;;;24.40;40.30;;;;;;5042085;28;20060;-81
2022/04/26 15:45:37;;;;;;;8.63;3.45;;;23.90;41.60;;;;;;5040563;28;20025;-78
2022/04/26 15:48:04;;;;;;;9.25;3.40;;;23.70;42.70;;;;;;5038355;28;20026;-78
2022/04/26 15:50:30;;;;;;;10.02;3.45;;;23.40;43.60;;;;;;5041747;28;20501;-77
2022/04/26 15:52:55;;;;;;;9.23;3.78;;;23.20;43.30;;;;;;5038232;28;20026;-78
2022/04/26 15:55:22;;;;;;;8.00;3.35;;;22.90;43.80;;;;;;5040582;28;20017;-77
2022/04/26 15:57:51;;;;;;;8.38;4.05;;;22.80;42.80;;;;;;5024481;28;20108;-77
2022/04/26 16:00:20;;;;;;;8.80;3.58;;;22.60;43.30;;;;;;5038626;28;20021;-78
2022/04/26 16:02:46;;;;;;;5.13;3.05;;;22.40;43.80;;;;;;5042560;28;20053;-79
2022/04/26 16:05:13;;;;;;;5.32;3.15;;;22.20;43.70;;;;;;5040880;28;20026;-79
2022/04/26 16:07:39;;;;;;;8.85;3.45;;;22.00;44.50;;;;;;5039686;28;20024;-77
2022/04/26 16:21:03;;;;;;;9.77;4.60;;;21.20;50.00;;;;;;5038996;28;20571;-77
2022/04/26 16:23:29;;;;;;;12.85;4.40;;;20.90;51.30;;;;;;5020467;28;20041;-77
2022/04/26 16:26:01;;;;;;;8.77;4.70;;;20.90;52.20;;;;;;5036387;28;20382;-77
2022/04/26 16:28:30;;;;;;;9.05;4.78;;;20.70;52.20;;;;;;5036608;28;20036;-77
2022/04/26 16:30:56;;;;;;;18.25;5.50;;;20.50;52.00;;;;;;5037357;28;20462;-77
2022/04/26 16:33:22;;;;;;;11.43;4.90;;;20.20;52.40;;;;;;5036943;28;20083;-77
2022/04/26 16:35:48;;;;;;;18.33;4.80;;;19.90;53.10;;;;;;5037326;28;20367;-76
2022/04/26 16:38:17;;;;;;;10.50;4.72;;;19.70;54.00;;;;;;5036669;28;20097;-77
2022/04/26 16:40:46;;;;;;;10.05;4.38;;;19.50;54.80;;;;;;5018735;28;20025;-77
2022/04/26 16:43:16;;;;;;;8.13;4.25;;;19.30;55.70;;;;;;5020503;28;20021;-77
2022/04/26 16:45:46;;;;;;;9.15;4.65;;;19.10;56.60;;;;;;5020025;28;20445;-79
2022/04/26 16:48:12;;;;;;;11.02;4.63;;;19.00;56.80;;;;;;5037389;28;20437;-77
2022/04/26 16:50:38;;;;;;;9.23;5.00;;;18.90;57.40;;;;;;5034707;28;20039;-77
2022/04/26 16:53:04;;;;;;;12.32;5.25;;;18.70;57.50;;;;;;5034674;28;20102;-77
2022/04/26 16:55:31;;;;;;;10.57;5.45;;;18.60;57.50;;;;;;5035083;28;20021;-77
2022/04/26 16:58:01;;;;;;;9.18;4.78;;;;;;;;;;5038380;28;20028;-77
2022/04/26 17:00:28;;;;;;;9.10;4.40;;;;;;;;;;5036349;28;20231;-77
2022/04/26 17:02:54;;;;;;;12.18;4.70;;;18.70;57.70;;;;;;5038351;28;20049;-77
2022/04/26 17:05:22;;;;;;;14.00;5.38;;;18.70;58.20;;;;;;5019773;28;20040;-77